Time;durP1;ratioP1;P1;durP2;ratioP2;P2;SDS_P1;SDS_P2;PMS_P1;PMS_P2;Temp;Humidity;BMP_temperature;BMP_pressure;BME280_temperature;BME280_humidity;BME280_pressure;Samples;Min_cycle;Max_cycle;Signal;HPM_P1;HPM_P2
2024/02/02 00:00:16;;;;;;;4.35;1.70;;;20.20;36.70;;;;;;5098076;28;20016;-60
2024/02/02 00:02:42;;;;;;;4.43;1.83;;;20.20;36.70;;;;;;5115357;28;20086;-61
2024/02/02 00:05:08;;;;;;;6.18;2.00;;;20.20;36.60;;;;;;5098241;28;20024;-61
2024/02/02 00:07:34;;;;;;;4.07;1.50;;;20.20;36.60;;;;;;5115862;28;20145;-62
2024/02/02 00:10:00;;;;;;;5.65;1.88;;;20.10;36.70;;;;;;5113591;28;20125;-62
2024/02/02 00:12:26;;;;;;;5.50;2.03;;;20.20;36.60;;;;;;5116467;28;20450;-61
2024/02/02 00:14:52;;;;;;;3.50;1.52;;;20.10;36.60;;;;;;5116480;28;20032;-61
2024/02/02 00:17:19;;;;;;;5.30;2.15;;;20.10;36.50;;;;;;5097642;28;20035;-61
2024/02/02 00:19:46;;;;;;;4.65;1.98;;;20.10;36.50;;;;;;5113669;28;20055;-60
2024/02/02 00:22:12;;;;;;;4.03;1.67;;;20.10;36.50;;;;;;5115766;28;20031;-60
2024/02/02 00:24:38;;;;;;;4.97;1.70;;;20.10;36.50;;;;;;5116017;28;20020;-61
2024/02/02 00:27:05;;;;;;;5.32;1.75;;;20.10;36.50;;;;;;5097834;28;20470;-61
2024/02/02 00:29:31;;;;;;;5.70;1.90;;;20.10;36.50;;;;;;5117280;28;20057;-61
2024/02/02 00:31:57;;;;;;;5.47;1.60;;;20.10;36.50;;;;;;5098528;28;20035;-62
2024/02/02 00:34:23;;;;;;;4.22;1.58;;;20.10;36.50;;;;;;5116180;28;20042;-63
2024/02/02 00:36:49;;;;;;;5.60;2.10;;;20.10;36.50;;;;;;5115898;28;20339;-60
2024/02/02 00:39:15;;;;;;;4.35;1.77;;;20.10;36.50;;;;;;5113978;28;20430;-60
2024/02/02 00:41:40;;;;;;;6.05;2.05;;;20.10;36.50;;;;;;5116459;28;20027;-62
2024/02/02 00:44:07;;;;;;;4.65;1.75;;;20.10;36.50;;;;;;5116682;28;20036;-61
2024/02/02 00:46:33;;;;;;;6.05;2.13;;;20.10;36.50;;;;;;5116011;28;20439;-60
2024/02/02 00:48:59;;;;;;;4.15;1.52;;;20.10;36.50;;;;;;5113343;28;20448;-62
2024/02/02 00:51:25;;;;;;;4.28;1.65;;;20.10;36.50;;;;;;5116646;28;20019;-61
2024/02/02 00:53:51;;;;;;;5.57;1.70;;;20.10;36.50;;;;;;5116654;28;20027;-61
2024/02/02 00:56:17;;;;;;;4.80;1.52;;;20.10;36.50;;;;;;5098345;28;20370;-62
2024/02/02 00:58:42;;;;;;;5.63;2.03;;;20.10;36.50;;;;;;5098258;28;20039;-60
2024/02/02 01:01:08;;;;;;;6.38;2.58;;;20.10;36.50;;;;;;5116346;28;20442;-62
2024/02/02 01:03:37;;;;;;;5.00;1.98;;;20.00;36.40;;;;;;5116575;28;20092;-61
2024/02/02 01:06:04;;;;;;;3.15;1.58;;;20.10;36.50;;;;;;5126142;27;20100;-61
2024/02/02 01:08:30;;;;;;;4.43;1.65;;;20.10;36.50;;;;;;5116313;28;20084;-61
2024/02/02 01:10:56;;;;;;;4.55;2.03;;;20.00;36.40;;;;;;5116166;28;20118;-61
2024/02/02 01:13:22;;;;;;;5.63;1.88;;;20.10;36.50;;;;;;5116388;28;20045;-61
2024/02/02 01:15:48;;;;;;;4.10;1.80;;;20.00;36.40;;;;;;5115150;28;20031;-61
2024/02/02 01:18:15;;;;;;;4.35;1.83;;;20.00;36.40;;;;;;5115923;28;20027;-62
2024/02/02 01:20:42;;;;;;;4.97;1.77;;;20.00;36.40;;;;;;5113398;28;20433;-61
2024/02/02 01:23:08;;;;;;;5.43;1.85;;;20.00;36.40;;;;;;5116226;28;20034;-62
2024/02/02 01:25:34;;;;;;;5.40;1.90;;;20.00;36.40;;;;;;5115759;28;20027;-61
2024/02/02 01:28:00;;;;;;;4.50;1.70;;;20.00;36.40;;;;;;5116185;28;20035;-61
2024/02/02 01:30:29;;;;;;;5.38;1.50;;;20.00;36.40;;;;;;5115481;28;20051;-59
2024/02/02 01:32:57;;;;;;;6.07;1.80;;;20.00;36.40;;;;;;5115847;28;20020;-61
2024/02/02 01:35:23;;;;;;;5.88;1.95;;;20.00;36.40;;;;;;5114987;28;20036;-61
2024/02/02 01:37:49;;;;;;;5.22;1.77;;;20.00;36.40;;;;;;5115745;28;20019;-60
2024/02/02 01:40:16;;;;;;;4.72;1.83;;;20.00;36.40;;;;;;5097315;28;20454;-60
2024/02/02 01:42:42;;;;;;;7.60;2.00;;;20.00;36.40;;;;;;5115423;28;20039;-62
2024/02/02 01:45:08;;;;;;;2.70;1.48;;;20.00;36.50;;;;;;5115580;28;20382;-61
2024/02/02 01:47:35;;;;;;;5.53;1.65;;;20.00;36.40;;;;;;5112675;28;20072;-61
2024/02/02 01:50:01;;;;;;;3.75;1.67;;;19.90;36.40;;;;;;5115612;28;20032;-60
2024/02/02 01:52:27;;;;;;;7.30;2.10;;;20.00;36.50;;;;;;5114871;28;20027;-62
2024/02/02 01:54:54;;;;;;;7.43;1.90;;;19.90;36.40;;;;;;5097090;28;20118;-62
2024/02/02 01:57:20;;;;;;;6.30;1.98;;;20.00;36.50;;;;;;5115601;28;20030;-62
2024/02/02 01:59:47;;;;;;;6.00;1.75;;;19.90;36.40;;;;;;5077944;28;20101;-61
2024/02/02 02:02:13;;;;;;;6.03;2.13;;;20.00;36.50;;;;;;5114594;28;20026;-60
2024/02/02 02:04:42;;;;;;;4.15;1.70;;;20.00;36.50;;;;;;5114748;28;20035;-61
2024/02/02 02:07:09;;;;;;;5.38;1.95;;;19.90;36.40;;;;;;5113210;28;20030;-61
2024/02/02 02:09:35;;;;;;;4.90;1.50;;;19.90;36.40;;;;;;5096846;28;20161;-60
2024/02/02 02:12:01;;;;;;;4.28;1.70;;;19.90;36.50;;;;;;5119402;27;20046;-62
2024/02/02 02:14:28;;;;;;;3.90;1.50;;;19.90;36.40;;;;;;5108125;28;20023;-60
2024/02/02 02:16:54;;;;;;;5.38;1.48;;;19.90;36.50;;;;;;5112058;28;20328;-62
2024/02/02 02:19:20;;;;;;;6.25;1.63;;;19.90;36.50;;;;;;5114964;28;20042;-61
2024/02/02 02:21:46;;;;;;;3.60;1.48;;;20.00;36.60;;;;;;5097086;28;20399;-62
2024/02/02 02:24:12;;;;;;;5.78;1.60;;;19.90;36.50;;;;;;5114408;28;20119;-59
2024/02/02 02:26:39;;;;;;;4.90;1.80;;;19.90;36.50;;;;;;5096669;28;20027;-61
2024/02/02 02:29:05;;;;;;;5.43;2.00;;;19.90;36.50;;;;;;5114284;28;20023;-62
2024/02/02 02:31:31;;;;;;;5.22;1.73;;;19.90;36.50;;;;;;5114656;28;20033;-61
2024/02/02 02:33:57;;;;;;;4.40;1.73;;;19.90;36.50;;;;;;5114593;28;20047;-60
2024/02/02 02:36:23;;;;;;;5.50;1.60;;;19.90;36.50;;;;;;5096459;28;20043;-60
2024/02/02 02:38:50;;;;;;;5.00;1.77;;;19.90;36.50;;;;;;5115102;28;20024;-61
2024/02/02 02:41:16;;;;;;;4.97;1.95;;;19.90;36.50;;;;;;5114800;28;20016;-61
2024/02/02 02:43:42;;;;;;;4.05;1.75;;;19.90;36.50;;;;;;5113744;28;20035;-61
2024/02/02 02:46:08;;;;;;;6.25;2.15;;;19.90;36.40;;;;;;5096309;28;20107;-61
2024/02/02 02:48:36;;;;;;;4.30;1.65;;;19.90;36.40;;;;;;5096645;28;20050;-61
2024/02/02 02:51:03;;;;;;;4.10;1.85;;;19.90;36.40;;;;;;5096039;28;20111;-62
2024/02/02 02:53:29;;;;;;;4.80;1.77;;;19.90;36.40;;;;;;5114737;28;20027;-60
2024/02/02 02:55:56;;;;;;;4.88;1.70;;;19.80;36.40;;;;;;5093557;28;20340;-61
2024/02/02 02:58:22;;;;;;;5.32;1.92;;;19.80;36.30;;;;;;5114303;28;20500;-61
2024/02/02 03:00:48;;;;;;;4.60;1.63;;;19.80;36.30;;;;;;5116440;28;20505;-62
2024/02/02 03:03:14;;;;;;;6.03;1.85;;;19.80;36.30;;;;;;5120985;28;20019;-61
2024/02/02 03:05:40;;;;;;;5.47;2.00;;;19.90;36.40;;;;;;5120905;28;20370;-61
2024/02/02 03:08:07;;;;;;;5.25;1.83;;;19.80;36.30;;;;;;5121515;28;20496;-61
2024/02/02 03:10:33;;;;;;;5.18;2.20;;;19.80;36.30;;;;;;5120889;28;20032;-62
2024/02/02 03:12:59;;;;;;;4.90;1.77;;;19.80;36.30;;;;;;5121002;28;20099;-60
2024/02/02 03:15:26;;;;;;;6.88;2.05;;;19.80;36.90;;;;;;5102791;28;20039;-61
2024/02/02 03:17:51;;;;;;;3.75;1.65;;;19.80;36.30;;;;;;5120506;28;20430;-62
2024/02/02 03:20:17;;;;;;;6.13;2.47;;;19.80;36.30;;;;;;5129855;27;20020;-60
2024/02/02 03:22:43;;;;;;;5.38;2.08;;;19.80;36.30;;;;;;5120406;28;20414;-61
2024/02/02 03:25:10;;;;;;;4.38;1.85;;;19.80;36.30;;;;;;5117901;28;20036;-61
2024/02/02 03:27:36;;;;;;;4.75;2.10;;;19.80;36.20;;;;;;5120836;28;20037;-61
2024/02/02 03:30:03;;;;;;;5.55;2.25;;;19.80;36.20;;;;;;5120442;28;20027;-60
2024/02/02 03:32:29;;;;;;;5.45;2.58;;;19.80;36.20;;;;;;5120071;28;20031;-62
2024/02/02 03:34:55;;;;;;;6.25;2.35;;;19.80;36.20;;;;;;5119982;28;20031;-61
2024/02/02 03:37:21;;;;;;;5.65;2.20;;;19.80;36.20;;;;;;5119505;28;20020;-63
2024/02/02 03:39:48;;;;;;;3.95;1.50;;;19.80;36.20;;;;;;5102047;28;20023;-60
2024/02/02 03:42:14;;;;;;;3.60;1.75;;;19.80;36.20;;;;;;5120129;28;20031;-60
2024/02/02 03:44:40;;;;;;;6.72;2.30;;;19.80;36.80;;;;;;5117625;28;20104;-61
2024/02/02 03:47:06;;;;;;;6.03;1.95;;;19.80;36.20;;;;;;5120126;28;20024;-61
2024/02/02 03:49:34;;;;;;;5.85;2.40;;;19.80;36.20;;;;;;5119867;28;20051;-61
2024/02/02 03:52:00;;;;;;;3.80;1.70;;;19.80;36.20;;;;;;5120451;28;20093;-61
2024/02/02 03:54:27;;;;;;;4.80;1.92;;;19.80;36.20;;;;;;5102021;28;20036;-60
2024/02/02 03:56:54;;;;;;;3.88;2.03;;;19.80;36.10;;;;;;5120063;28;20038;-61
2024/02/02 03:59:20;;;;;;;5.22;2.20;;;19.80;36.20;;;;;;5118799;28;20077;-61
2024/02/02 04:01:46;;;;;;;4.25;1.77;;;19.80;36.80;;;;;;5119749;28;20019;-62
2024/02/02 04:04:12;;;;;;;4.38;1.70;;;19.80;36.10;;;;;;5120097;28;20442;-61
2024/02/02 04:06:38;;;;;;;4.93;2.00;;;19.80;36.20;;;;;;5120155;28;20028;-60
2024/02/02 04:09:04;;;;;;;4.75;2.30;;;19.80;36.10;;;;;;5120485;28;20024;-61
2024/02/02 04:11:30;;;;;;;4.70;1.85;;;19.70;36.10;;;;;;5119145;28;20362;-60
2024/02/02 04:13:55;;;;;;;6.45;2.40;;;19.80;36.10;;;;;;5115586;28;20061;-61
2024/02/02 04:16:22;;;;;;;6.47;2.17;;;19.70;36.00;;;;;;5116779;28;20071;-61
2024/02/02 04:18:49;;;;;;;6.00;2.25;;;19.70;36.00;;;;;;5098060;28;20039;-60
2024/02/02 04:21:15;;;;;;;5.28;2.15;;;19.80;36.10;;;;;;5116932;28;20046;-62
2024/02/02 04:23:41;;;;;;;5.05;1.95;;;19.70;36.00;;;;;;5116284;28;20035;-60
2024/02/02 04:26:06;;;;;;;3.88;1.67;;;19.70;36.00;;;;;;5116227;28;20043;-61
2024/02/02 04:28:32;;;;;;;4.20;1.77;;;19.70;36.00;;;;;;5116312;28;20084;-60
2024/02/02 04:30:58;;;;;;;5.40;2.15;;;19.70;36.60;;;;;;5116873;28;20020;-60
2024/02/02 04:33:24;;;;;;;5.78;2.08;;;19.70;36.00;;;;;;5116718;28;20039;-61
2024/02/02 04:35:50;;;;;;;4.13;1.63;;;19.70;35.90;;;;;;5116428;28;20502;-62
2024/02/02 04:38:17;;;;;;;5.38;1.90;;;19.70;35.90;;;;;;5116437;28;20051;-61
2024/02/02 04:40:45;;;;;;;4.55;2.20;;;19.70;35.90;;;;;;5098338;28;20370;-60
2024/02/02 04:43:10;;;;;;;4.07;2.00;;;19.70;35.90;;;;;;5115547;28;20043;-61
2024/02/02 04:45:36;;;;;;;5.03;1.73;;;19.70;35.90;;;;;;5116374;28;20084;-60
2024/02/02 04:48:03;;;;;;;5.03;1.80;;;19.70;35.90;;;;;;5098560;28;20024;-62
2024/02/02 04:50:30;;;;;;;5.82;1.90;;;19.70;35.90;;;;;;5116765;28;20031;-61
2024/02/02 04:52:56;;;;;;;5.03;2.03;;;19.70;35.90;;;;;;5115362;28;20063;-62
2024/02/02 04:55:22;;;;;;;5.50;2.03;;;19.70;35.90;;;;;;5115692;28;20066;-62
2024/02/02 04:57:48;;;;;;;4.53;1.80;;;19.60;36.10;;;;;;5115778;28;20324;-62
2024/02/02 05:00:14;;;;;;;5.32;1.92;;;19.70;35.90;;;;;;5116249;28;20026;-61
2024/02/02 05:02:40;;;;;;;5.28;2.15;;;19.70;35.90;;;;;;5115366;28;20024;-62
2024/02/02 05:05:06;;;;;;;5.68;2.00;;;19.70;35.90;;;;;;5115559;28;20396;-60
2024/02/02 05:07:33;;;;;;;3.88;1.50;;;19.70;35.90;;;;;;5115760;28;20534;-61
2024/02/02 05:09:58;;;;;;;3.28;1.58;;;19.70;35.80;;;;;;5098132;28;20023;-61
2024/02/02 05:12:24;;;;;;;5.45;1.70;;;19.70;35.90;;;;;;5097261;28;20499;-61
2024/02/02 05:14:50;;;;;;;5.13;1.70;;;19.70;35.80;;;;;;5115502;28;20039;-62
2024/02/02 05:17:16;;;;;;;4.38;1.88;;;19.70;35.80;;;;;;5098267;28;20031;-61
2024/02/02 05:19:42;;;;;;;4.65;1.85;;;19.60;35.80;;;;;;5113128;28;20100;-61
2024/02/02 05:22:08;;;;;;;4.30;1.70;;;19.60;35.80;;;;;;5115483;28;20077;-61
2024/02/02 05:24:37;;;;;;;4.25;1.50;;;19.60;35.80;;;;;;5115296;28;20019;-61
2024/02/02 05:27:03;;;;;;;4.32;1.48;;;19.70;35.90;;;;;;5115404;28;20012;-60
2024/02/02 05:29:29;;;;;;;4.63;1.52;;;19.60;35.80;;;;;;5097285;28;20020;-62
2024/02/02 05:31:55;;;;;;;4.50;1.98;;;19.70;35.80;;;;;;5114938;28;20342;-60
2024/02/02 05:34:21;;;;;;;3.55;1.58;;;19.70;35.80;;;;;;5115149;28;20043;-62
2024/02/02 05:36:47;;;;;;;4.32;1.50;;;19.60;35.80;;;;;;5097556;28;20431;-60
2024/02/02 05:39:13;;;;;;;6.68;1.60;;;19.60;35.80;;;;;;5115547;28;20051;-59
2024/02/02 05:41:39;;;;;;;3.33;1.58;;;19.60;35.80;;;;;;5114546;28;20123;-61
2024/02/02 05:44:04;;;;;;;4.72;1.30;;;19.60;35.80;;;;;;5115106;28;20421;-60
2024/02/02 05:46:30;;;;;;;4.63;1.75;;;19.60;35.80;;;;;;5115687;28;20484;-60
2024/02/02 05:48:56;;;;;;;4.65;1.52;;;19.60;35.80;;;;;;5097127;28;20092;-61
2024/02/02 05:51:22;;;;;;;6.88;2.00;;;19.60;35.80;;;;;;5115255;28;20035;-61
2024/02/02 05:53:48;;;;;;;4.63;1.48;;;19.60;35.80;;;;;;5114470;28;20027;-61
2024/02/02 05:56:13;;;;;;;4.63;1.70;;;19.60;35.90;;;;;;5114712;28;20035;-61
2024/02/02 05:58:39;;;;;;;6.93;2.25;;;19.60;35.90;;;;;;5115151;28;20020;-62
2024/02/02 06:01:05;;;;;;;4.22;1.58;;;19.60;35.90;;;;;;5096757;28;20443;-61
2024/02/02 06:03:31;;;;;;;3.42;1.30;;;19.60;35.90;;;;;;5114249;28;20450;-61
2024/02/02 06:05:57;;;;;;;3.28;1.48;;;19.60;35.90;;;;;;5115084;28;20081;-61
2024/02/02 06:08:23;;;;;;;4.30;1.88;;;19.60;35.90;;;;;;5114832;28;20023;-61
2024/02/02 06:10:49;;;;;;;6.20;1.75;;;19.60;35.90;;;;;;5114318;28;20035;-61
2024/02/02 06:13:17;;;;;;;4.30;1.63;;;19.60;35.90;;;;;;5114403;28;20035;-61
2024/02/02 06:15:43;;;;;;;5.57;1.77;;;19.60;35.90;;;;;;5114562;28;20134;-60
2024/02/02 06:18:09;;;;;;;4.22;1.65;;;19.60;36.00;;;;;;5114482;28;20133;-61
2024/02/02 06:20:35;;;;;;;3.58;1.40;;;19.60;36.00;;;;;;5114226;28;20031;-61
2024/02/02 06:23:01;;;;;;;5.53;1.90;;;19.60;36.00;;;;;;5114039;28;20429;-61
2024/02/02 06:25:27;;;;;;;3.80;1.42;;;19.60;36.00;;;;;;5114937;28;20038;-60
2024/02/02 06:27:52;;;;;;;2.65;1.27;;;19.60;36.00;;;;;;5114611;28;20134;-59
2024/02/02 06:30:18;;;;;;;5.43;1.70;;;19.60;36.00;;;;;;5096655;28;20032;-61
2024/02/02 06:32:49;;;;;;;4.30;1.38;;;19.60;36.10;;;;;;5113685;28;20031;-62
2024/02/02 06:35:18;;;;;;;5.72;1.73;;;19.60;36.10;;;;;;5094639;28;20035;-61
2024/02/02 06:37:43;;;;;;;3.33;1.55;;;19.60;36.10;;;;;;5114290;28;20031;-61
2024/02/02 06:40:10;;;;;;;4.78;1.65;;;19.50;36.00;;;;;;5113713;28;20042;-60
2024/02/02 06:42:36;;;;;;;3.30;1.40;;;19.50;36.10;;;;;;5095937;28;20446;-61
2024/02/02 06:45:02;;;;;;;4.47;1.60;;;19.50;36.10;;;;;;5114375;28;20027;-61
2024/02/02 06:47:28;;;;;;;3.22;1.25;;;19.50;36.10;;;;;;5095698;28;20027;-61
2024/02/02 06:49:53;;;;;;;4.10;1.40;;;19.50;36.10;;;;;;5094870;28;20122;-61
2024/02/02 06:52:21;;;;;;;3.78;1.30;;;19.50;36.10;;;;;;5113642;28;20016;-61
2024/02/02 06:54:47;;;;;;;5.47;1.50;;;19.50;36.10;;;;;;5114380;28;20027;-61
2024/02/02 06:57:14;;;;;;;3.60;1.38;;;19.50;36.20;;;;;;5114165;28;20020;-62
2024/02/02 06:59:43;;;;;;;3.45;1.55;;;19.50;36.20;;;;;;5113573;28;20039;-61
2024/02/02 07:02:22;;;;;;;5.10;1.50;;;19.50;36.20;;;;;;5095120;28;20039;-62
2024/02/02 07:04:48;;;;;;;3.60;1.42;;;19.50;36.20;;;;;;5111742;28;20020;-60
2024/02/02 07:07:17;;;;;;;4.72;1.45;;;19.50;36.30;;;;;;5095410;28;20039;-61
2024/02/02 07:09:53;;;;;;;4.05;1.48;;;19.50;36.30;;;;;;5113966;28;20051;-62
2024/02/02 07:12:34;;;;;;;3.40;1.30;;;19.50;36.30;;;;;;5113419;28;20438;-62
2024/02/02 07:15:04;;;;;;;3.50;1.23;;;19.50;37.00;;;;;;5074942;28;20043;-62
2024/02/02 07:17:35;;;;;;;4.35;1.45;;;19.50;36.40;;;;;;5094762;28;20067;-60
2024/02/02 07:20:05;;;;;;;4.78;1.73;;;19.50;36.40;;;;;;5112388;28;20115;-60
2024/02/02 07:22:39;;;;;;;3.13;1.52;;;19.50;36.40;;;;;;5095449;28;20031;-60
2024/02/02 07:25:07;;;;;;;3.78;1.38;;;19.50;36.50;;;;;;5113923;28;20023;-61
2024/02/02 07:27:43;;;;;;;4.30;1.65;;;19.50;36.50;;;;;;5113364;28;20044;-61
2024/02/02 07:30:13;;;;;;;4.25;1.60;;;19.50;36.50;;;;;;5095641;28;20034;-60
2024/02/02 07:32:40;;;;;;;4.15;1.30;;;19.50;36.50;;;;;;5096142;28;20098;-61
2024/02/02 07:35:29;;;;;;;5.05;1.63;;;19.50;36.60;;;;;;5113380;28;20506;-61
2024/02/02 07:37:55;;;;;;;5.15;1.50;;;19.50;36.60;;;;;;5095458;28;20073;-61
2024/02/02 07:40:30;;;;;;;5.93;1.85;;;19.50;36.60;;;;;;5095269;28;20106;-62
2024/02/02 07:42:59;;;;;;;2.72;1.17;;;19.50;36.70;;;;;;5113268;28;20089;-61
2024/02/02 07:45:25;;;;;;;4.35;1.48;;;19.50;36.70;;;;;;5110979;28;20031;-61
2024/02/02 07:47:52;;;;;;;3.58;1.25;;;19.50;36.70;;;;;;5113460;28;20322;-62
2024/02/02 07:50:17;;;;;;;5.05;1.73;;;19.50;36.70;;;;;;5117512;28;20051;-63
2024/02/02 07:52:43;;;;;;;4.53;1.40;;;19.50;36.70;;;;;;5117367;28;20128;-62
2024/02/02 07:55:09;;;;;;;3.92;1.20;;;19.50;36.80;;;;;;5116874;28;20036;-60
2024/02/02 07:57:35;;;;;;;3.45;1.33;;;19.50;36.80;;;;;;5116795;28;20051;-61
2024/02/02 08:00:01;;;;;;;5.28;1.60;;;19.50;36.80;;;;;;5116105;28;20039;-59
2024/02/02 08:02:27;;;;;;;5.57;1.77;;;19.50;36.90;;;;;;5126957;27;20043;-61
2024/02/02 08:04:52;;;;;;;4.28;1.50;;;19.50;36.90;;;;;;5097919;28;20034;-61
2024/02/02 08:07:18;;;;;;;4.00;1.50;;;19.50;37.00;;;;;;5098760;28;20067;-60
2024/02/02 08:09:44;;;;;;;4.82;1.60;;;19.50;37.00;;;;;;5115996;28;20362;-61
2024/02/02 08:12:10;;;;;;;4.88;1.48;;;19.50;37.10;;;;;;5116317;28;20045;-61
2024/02/02 08:14:38;;;;;;;5.93;1.70;;;19.50;37.20;;;;;;5116355;28;20513;-61
2024/02/02 08:17:07;;;;;;;5.10;1.40;;;19.50;37.30;;;;;;5116068;28;20023;-59
2024/02/02 08:19:32;;;;;;;4.45;1.80;;;19.50;37.30;;;;;;5115876;28;20070;-58
2024/02/02 08:21:58;;;;;;;3.95;1.55;;;19.60;37.40;;;;;;5116967;28;20078;-60
2024/02/02 08:24:25;;;;;;;5.15;1.73;;;19.60;37.40;;;;;;5099007;28;20042;-61
2024/02/02 08:26:51;;;;;;;3.55;1.45;;;19.70;37.40;;;;;;5098821;28;20034;-61
2024/02/02 08:29:17;;;;;;;4.15;1.75;;;19.70;37.30;;;;;;5099765;28;20073;-60
2024/02/02 08:31:44;;;;;;;5.15;1.75;;;19.70;37.30;;;;;;5116405;28;20016;-62
2024/02/02 08:34:15;;;;;;;4.55;1.30;;;19.80;37.30;;;;;;5115919;28;20057;-59
2024/02/02 08:36:48;;;;;;;6.40;1.90;;;19.90;37.30;;;;;;5123878;27;20028;-61
2024/02/02 08:39:14;;;;;;;3.72;1.38;;;19.90;37.30;;;;;;5098511;28;20019;-59
2024/02/02 08:41:40;;;;;;;4.15;1.45;;;20.00;37.30;;;;;;5116640;28;20038;-60
2024/02/02 08:44:21;;;;;;;4.25;1.60;;;20.00;37.30;;;;;;5105229;27;20476;-60
2024/02/02 08:46:49;;;;;;;6.20;1.77;;;20.10;37.30;;;;;;5075819;28;20035;-60
2024/02/02 08:49:46;;;;;;;6.28;1.52;;;20.10;37.20;;;;;;5058309;28;20035;-59
2024/02/02 08:52:21;;;;;;;3.88;1.40;;;20.20;37.20;;;;;;5072996;28;20036;-60
2024/02/02 08:54:47;;;;;;;3.38;1.35;;;20.20;37.10;;;;;;5056134;28;20037;-61
2024/02/02 08:57:22;;;;;;;3.30;1.60;;;20.30;37.30;;;;;;5077671;28;20016;-60
2024/02/02 08:59:52;;;;;;;4.63;1.70;;;20.30;37.00;;;;;;5074956;28;20021;-61
2024/02/02 09:02:42;;;;;;;4.38;1.35;;;20.40;37.00;;;;;;5073674;28;20032;-59
2024/02/02 09:05:34;;;;;;;4.20;1.58;;;20.40;37.00;;;;;;5073245;28;20455;-58
2024/02/02 09:08:32;;;;;;;5.55;1.48;;;20.40;36.90;;;;;;5076268;28;20035;-60
2024/02/02 09:10:58;;;;;;;4.07;1.42;;;20.50;36.90;;;;;;5057788;28;20087;-61
2024/02/02 09:13:27;;;;;;;5.13;1.63;;;20.50;36.90;;;;;;5075499;28;20052;-61
2024/02/02 09:15:53;;;;;;;5.15;1.70;;;20.60;37.50;;;;;;5075851;28;20115;-62
2024/02/02 09:18:34;;;;;;;3.90;1.58;;;20.60;36.80;;;;;;5075329;28;20024;-61
2024/02/02 09:21:01;;;;;;;4.10;1.48;;;20.60;36.80;;;;;;5075888;28;20111;-60
2024/02/02 09:23:30;;;;;;;6.47;1.80;;;20.70;36.80;;;;;;5075804;28;20029;-60
2024/02/02 09:25:56;;;;;;;3.75;1.40;;;20.70;36.80;;;;;;5058263;28;20048;-60
2024/02/02 09:28:25;;;;;;;5.07;1.83;;;20.70;36.80;;;;;;5075849;28;20394;-61
2024/02/02 09:31:04;;;;;;;5.65;1.80;;;20.70;36.80;;;;;;5076094;28;20028;-60
2024/02/02 09:33:30;;;;;;;4.28;1.80;;;20.80;36.70;;;;;;5058673;28;20028;-59
2024/02/02 09:36:02;;;;;;;5.32;1.60;;;20.80;36.70;;;;;;5075972;28;20451;-61
2024/02/02 09:38:29;;;;;;;5.22;1.70;;;20.80;36.70;;;;;;5076175;28;20459;-60
2024/02/02 09:41:01;;;;;;;5.40;1.67;;;20.80;36.60;;;;;;5074005;28;20440;-61
2024/02/02 09:44:08;;;;;;;4.95;1.70;;;20.80;36.60;;;;;;5080565;28;20044;-60
2024/02/02 09:46:56;;;;;;;4.57;1.50;;;20.80;36.60;;;;;;5013055;28;20053;-60
2024/02/02 09:49:49;;;;;;;4.32;1.67;;;20.90;36.70;;;;;;5029238;28;20523;-60
2024/02/02 09:52:40;;;;;;;4.13;1.70;;;20.90;36.60;;;;;;5094373;28;20060;-61
2024/02/02 09:55:12;;;;;;;6.10;1.90;;;20.90;36.60;;;;;;5092302;28;20120;-60
2024/02/02 09:57:49;;;;;;;4.10;1.30;;;21.00;36.60;;;;;;5094262;28;20036;-59
2024/02/02 10:00:20;;;;;;;4.93;1.73;;;21.00;36.60;;;;;;5094299;28;20051;-60
2024/02/02 10:03:08;;;;;;;3.65;1.50;;;21.00;36.60;;;;;;5094303;28;20073;-60
2024/02/02 10:05:52;;;;;;;4.85;1.52;;;21.10;36.60;;;;;;5092743;28;20039;-59
2024/02/02 10:08:55;;;;;;;6.20;2.28;;;21.10;36.60;;;;;;5093307;28;20102;-59
2024/02/02 10:11:42;;;;;;;7.22;1.90;;;21.10;36.50;;;;;;5022634;28;20107;-61
2024/02/02 10:14:25;;;;;;;3.50;1.50;;;21.10;36.50;;;;;;5093668;28;20036;-59
2024/02/02 10:17:06;;;;;;;3.72;1.25;;;21.20;36.50;;;;;;5072479;28;20079;-61
2024/02/02 10:20:00;;;;;;;4.68;1.52;;;21.20;36.50;;;;;;5093717;28;20020;-59
2024/02/02 10:23:03;;;;;;;5.82;1.80;;;21.20;36.60;;;;;;5075729;28;20328;-58
2024/02/02 10:25:53;;;;;;;5.97;1.45;;;21.20;36.60;;;;;;5093463;28;20028;-59
2024/02/02 10:28:35;;;;;;;6.45;1.65;;;21.30;36.70;;;;;;5094343;28;20075;-60
2024/02/02 10:31:07;;;;;;;4.13;1.50;;;21.20;36.60;;;;;;5093133;28;20103;-61
2024/02/02 10:33:57;;;;;;;3.60;1.40;;;21.30;36.70;;;;;;5075660;28;20086;-62
2024/02/02 10:36:36;;;;;;;4.20;1.88;;;21.30;36.70;;;;;;5092598;28;20039;-60
2024/02/02 10:39:13;;;;;;;3.65;1.35;;;21.30;36.70;;;;;;5094009;28;20024;-60
2024/02/02 10:42:11;;;;;;;3.28;1.38;;;21.30;36.70;;;;;;5071123;28;20090;-60
2024/02/02 10:45:01;;;;;;;3.88;1.80;;;21.40;36.80;;;;;;5090275;28;20087;-60
2024/02/02 10:47:55;;;;;;;3.63;1.42;;;21.40;36.70;;;;;;5087478;28;20054;-61
2024/02/02 10:50:48;;;;;;;2.90;1.40;;;21.30;36.70;;;;;;5092991;28;20466;-59
2024/02/02 10:53:22;;;;;;;5.13;1.60;;;21.40;36.70;;;;;;5090340;28;20028;-61
2024/02/02 10:55:58;;;;;;;4.47;1.50;;;21.30;36.70;;;;;;5092660;28;20028;-61
2024/02/02 10:58:40;;;;;;;3.65;1.42;;;21.30;36.70;;;;;;5093034;28;20039;-63
2024/02/02 11:01:06;;;;;;;4.40;1.60;;;21.40;36.80;;;;;;5075328;28;20036;-60
2024/02/02 11:03:49;;;;;;;3.88;1.40;;;21.30;36.80;;;;;;5092974;28;20024;-60
2024/02/02 11:06:42;;;;;;;2.85;1.17;;;21.40;36.80;;;;;;5075486;28;20063;-59
2024/02/02 11:09:20;;;;;;;4.82;1.73;;;21.40;36.90;;;;;;5072445;28;20378;-61
2024/02/02 11:11:57;;;;;;;4.70;1.65;;;21.40;37.00;;;;;;5092909;28;20028;-58
2024/02/02 11:14:36;;;;;;;5.70;1.35;;;21.40;37.00;;;;;;5093243;28;20051;-61
2024/02/02 11:17:35;;;;;;;3.72;1.33;;;21.30;37.00;;;;;;5096422;28;20032;-62
2024/02/02 11:20:12;;;;;;;4.05;1.48;;;21.40;37.10;;;;;;5091541;28;20021;-61
2024/02/02 11:23:00;;;;;;;3.53;1.42;;;21.30;37.10;;;;;;5095645;28;20024;-61
2024/02/02 11:25:38;;;;;;;2.78;1.30;;;21.30;37.10;;;;;;5097557;28;20032;-61
2024/02/02 11:28:15;;;;;;;4.25;1.67;;;21.30;37.20;;;;;;5090293;28;20013;-55
2024/02/02 11:30:57;;;;;;;3.90;1.40;;;21.30;37.40;;;;;;5098055;28;20516;-59
2024/02/02 11:33:36;;;;;;;2.92;1.30;;;21.40;37.50;;;;;;5097656;28;20459;-56
2024/02/02 11:36:39;;;;;;;4.28;1.75;;;21.50;37.60;;;;;;5078496;28;20103;-64
2024/02/02 11:39:39;;;;;;;4.60;1.73;;;21.60;37.60;;;;;;5098355;28;20093;-60
2024/02/02 11:42:10;;;;;;;4.10;1.60;;;21.60;37.50;;;;;;5098187;28;20030;-54
2024/02/02 11:44:37;;;;;;;4.10;1.52;;;21.70;37.60;;;;;;5080626;28;20063;-53
2024/02/02 11:47:06;;;;;;;3.13;1.25;;;21.70;37.50;;;;;;5098500;28;20094;-51
2024/02/02 11:49:36;;;;;;;2.85;1.17;;;21.70;37.40;;;;;;5097976;28;20353;-54
2024/02/02 11:52:07;;;;;;;4.55;1.85;;;21.80;37.40;;;;;;5098031;28;20032;-58
2024/02/02 11:54:42;;;;;;;3.72;1.65;;;21.80;37.40;;;;;;5098171;28;20035;-55
2024/02/02 11:57:15;;;;;;;3.00;1.42;;;21.80;37.20;;;;;;5098267;28;20074;-63
2024/02/02 11:59:43;;;;;;;5.65;1.65;;;21.80;37.20;;;;;;5080053;28;20459;-64
2024/02/02 12:02:27;;;;;;;3.38;1.58;;;21.80;37.20;;;;;;5099042;28;20028;-61
2024/02/02 12:05:16;;;;;;;2.80;1.33;;;21.90;37.90;;;;;;5097724;28;20336;-63
2024/02/02 12:07:56;;;;;;;3.60;1.48;;;21.90;37.20;;;;;;5099048;28;20038;-64
2024/02/02 12:10:25;;;;;;;3.33;1.38;;;22.00;37.30;;;;;;5097450;28;20089;-62
2024/02/02 12:13:17;;;;;;;3.33;1.20;;;22.00;37.30;;;;;;5097222;28;20463;-61
2024/02/02 12:15:43;;;;;;;2.85;1.30;;;22.00;37.30;;;;;;5077602;28;20040;-61
2024/02/02 12:18:09;;;;;;;4.07;1.65;;;22.00;37.40;;;;;;5081384;28;20035;-62
2024/02/02 12:20:38;;;;;;;2.92;1.33;;;22.00;37.40;;;;;;5079725;28;20024;-61
2024/02/02 12:23:05;;;;;;;4.22;1.60;;;22.00;37.50;;;;;;5097755;28;20103;-61
2024/02/02 12:25:31;;;;;;;3.17;1.30;;;22.00;37.50;;;;;;5097924;28;20051;-60
2024/02/02 12:27:57;;;;;;;2.83;1.30;;;22.00;37.50;;;;;;5097929;28;20036;-62
2024/02/02 12:30:23;;;;;;;3.67;1.75;;;22.00;37.50;;;;;;5097985;28;20467;-60
2024/02/02 12:32:56;;;;;;;4.68;1.58;;;22.00;37.50;;;;;;5096649;28;20024;-59
2024/02/02 12:35:25;;;;;;;4.65;1.67;;;22.00;37.50;;;;;;5077714;28;20059;-61
2024/02/02 12:37:52;;;;;;;5.13;1.90;;;21.90;37.40;;;;;;5093187;28;20028;-60
2024/02/02 12:40:23;;;;;;;4.97;1.85;;;22.00;37.50;;;;;;5095535;28;20107;-64
2024/02/02 12:42:50;;;;;;;4.38;2.20;;;21.90;37.40;;;;;;5076727;28;20115;-62
2024/02/02 12:45:17;;;;;;;4.03;1.63;;;21.90;37.40;;;;;;5083688;28;20400;-63
2024/02/02 12:47:49;;;;;;;4.10;1.90;;;21.90;37.40;;;;;;5097163;28;20373;-63
2024/02/02 12:50:17;;;;;;;3.65;1.50;;;21.90;37.50;;;;;;5113278;28;20078;-61
2024/02/02 12:52:45;;;;;;;4.32;1.55;;;22.00;37.70;;;;;;5079244;28;20039;-67
2024/02/02 12:55:12;;;;;;;4.50;1.77;;;22.00;37.80;;;;;;5096974;28;20028;-58
2024/02/02 12:57:39;;;;;;;6.10;1.98;;;22.00;37.90;;;;;;5096948;28;20028;-55
2024/02/02 13:00:06;;;;;;;17.63;3.42;;;22.00;37.90;;;;;;5096739;28;20020;-51
2024/02/02 13:02:32;;;;;;;18.73;3.13;;;22.00;37.90;;;;;;5097000;28;20039;-57